Time;durP1;ratioP1;P1;durP2;ratioP2;P2;SDS_P1;SDS_P2;PMS_P1;PMS_P2;Temp;Humidity;BMP_temperature;BMP_pressure;BME280_temperature;BME280_humidity;BME280_pressure;Samples;Min_cycle;Max_cycle;Signal;HPM_P1;HPM_P2
2021/09/20 00:02:16;;;;;;;6.05;4.32;;;;;;;;;;4777141;30;20030;-83
2021/09/20 00:04:42;;;;;;;7.20;4.20;;;;;;;;;;4788045;30;20039;-85
2021/09/20 00:07:07;;;;;;;6.72;4.57;;;;;;;;;;4743099;29;20420;-84
2021/09/20 00:09:32;;;;;;;6.22;4.40;;;;;;;;;;4793740;29;20067;-82
2021/09/20 00:11:58;;;;;;;6.47;4.53;;;;;;;;;;4761791;30;20046;-85
2021/09/20 00:14:24;;;;;;;6.30;4.85;;;;;;;;;;4785619;29;20063;-84
2021/09/20 00:16:49;;;;;;;8.15;4.95;;;;;;;;;;4738259;29;20034;-85
2021/09/20 00:19:15;;;;;;;6.65;4.72;;;;;;;;;;4781799;29;20088;-84
2021/09/20 00:21:40;;;;;;;6.97;4.53;;;;;;;;;;4773648;29;20095;-83
2021/09/20 00:24:06;;;;;;;5.65;4.00;;;;;;;;;;4790777;30;20046;-85
2021/09/20 00:26:31;;;;;;;6.97;4.30;;;;;;;;;;4780008;29;20042;-83
2021/09/20 00:28:57;;;;;;;6.82;4.60;;;;;;;;;;4779347;30;20118;-85
2021/09/20 00:31:22;;;;;;;6.18;4.55;;;;;;;;;;4784545;29;20403;-84
2021/09/20 00:33:47;;;;;;;5.70;4.40;;;;;;;;;;4795278;29;20518;-83
2021/09/20 00:36:13;;;;;;;6.82;4.63;;;;;;;;;;4776692;30;20040;-82
2021/09/20 00:38:38;;;;;;;6.03;4.15;;;;;;;;;;4794022;29;20027;-83
2021/09/20 00:41:04;;;;;;;7.40;4.40;;;;;;;;;;4789098;29;20092;-84
2021/09/20 00:43:30;;;;;;;7.47;4.60;;;;;;;;;;4789300;29;20027;-85
2021/09/20 00:45:55;;;;;;;9.25;4.32;;;;;;;;;;4781125;30;20062;-85
2021/09/20 00:48:21;;;;;;;7.18;4.45;;;;;;;;;;4769194;30;20102;-83
2021/09/20 00:50:46;;;;;;;7.32;4.60;;;;;;;;;;4780540;29;20115;-84
2021/09/20 00:53:12;;;;;;;7.32;4.65;;;;;;;;;;4787592;29;20031;-83
2021/09/20 00:55:40;;;;;;;6.82;4.13;;;;;;;;;;4769722;30;20057;-84
2021/09/20 00:58:10;;;;;;;8.20;4.68;;;;;;;;;;4789380;29;20042;-85
2021/09/20 01:00:36;;;;;;;6.20;4.28;;;;;;;;;;4795483;29;20035;-83
2021/09/20 01:03:01;;;;;;;6.65;4.45;;;;;;;;;;4787849;30;20038;-85
2021/09/20 01:05:27;;;;;;;7.80;4.95;;;;;;;;;;4773708;29;20034;-84
2021/09/20 01:07:52;;;;;;;12.73;5.25;;;;;;;;;;4794128;29;20710;-82
2021/09/20 01:10:17;;;;;;;6.85;4.70;;;;;;;;;;4791600;29;21621;-82
2021/09/20 01:12:43;;;;;;;5.78;4.40;;;;;;;;;;4774207;29;20519;-83
2021/09/20 01:15:09;;;;;;;6.75;4.63;;;;;;;;;;4796173;29;20403;-83
2021/09/20 01:17:34;;;;;;;7.00;5.07;;;;;;;;;;4761682;29;20042;-83
2021/09/20 01:20:00;;;;;;;6.75;4.32;;;;;;;;;;4789835;30;20031;-85
2021/09/20 01:22:26;;;;;;;8.63;5.18;;;;;;;;;;4780289;29;20030;-82
2021/09/20 01:24:54;;;;;;;6.95;5.30;;;;;;;;;;4774144;30;20046;-82
2021/09/20 01:27:20;;;;;;;7.63;5.30;;;;;;;;;;4800373;29;20518;-82
2021/09/20 01:29:46;;;;;;;8.00;4.90;;;;;;;;;;4792264;29;20066;-85
2021/09/20 01:32:12;;;;;;;6.72;4.78;;;;;;;;;;4776358;29;20028;-82
2021/09/20 01:34:38;;;;;;;6.47;4.82;;;;;;;;;;4794050;29;20096;-82
2021/09/20 01:37:04;;;;;;;6.38;4.53;;;;;;;;;;4758742;30;20695;-82
2021/09/20 01:39:32;;;;;;;8.80;5.20;;;;;;;;;;4774525;29;20031;-83
2021/09/20 01:41:59;;;;;;;7.93;5.00;;;;;;;;;;4789011;29;20461;-84
2021/09/20 01:44:25;;;;;;;6.82;4.93;;;;;;;;;;4791768;29;20112;-84
2021/09/20 01:46:52;;;;;;;8.77;4.65;;;;;;;;;;4796799;29;20040;-82
2021/09/20 01:49:18;;;;;;;7.22;5.30;;;;;;;;;;4774411;30;20035;-83
2021/09/20 01:51:44;;;;;;;7.47;4.72;;;;;;;;;;4794267;29;20441;-82
2021/09/20 01:54:10;;;;;;;6.75;4.78;;;;;;;;;;4774354;30;20100;-84
2021/09/20 01:56:36;;;;;;;6.60;4.82;;;;;;;;;;4784857;30;20043;-83
2021/09/20 01:59:02;;;;;;;7.85;4.97;;;;;;;;;;4796744;29;20083;-85
2021/09/20 02:01:29;;;;;;;7.45;4.82;;;;;;;;;;4790819;29;20018;-85
2021/09/20 02:03:55;;;;;;;7.20;4.90;;;;;;;;;;4789214;29;20123;-83
2021/09/20 02:06:21;;;;;;;8.07;5.10;;;;;;;;;;4776806;30;20492;-82
2021/09/20 02:08:49;;;;;;;8.50;5.00;;;;;;;;;;4793188;29;20051;-85
2021/09/20 02:11:16;;;;;;;7.88;5.05;;;;;;;;;;4788064;29;20035;-83
2021/09/20 02:13:42;;;;;;;8.35;5.15;;;;;;;;;;4786247;29;20042;-84
2021/09/20 02:16:07;;;;;;;7.60;5.18;;;;;;;;;;4771879;29;20405;-85
2021/09/20 02:18:33;;;;;;;7.25;5.20;;;;;;;;;;4776163;30;20050;-85
2021/09/20 02:20:58;;;;;;;8.05;5.32;;;;;;;;;;4761886;29;20042;-83
2021/09/20 02:23:24;;;;;;;8.57;4.93;;;;;;;;;;4787137;29;20039;-85
2021/09/20 02:25:49;;;;;;;7.90;5.55;;;;;;;;;;4760833;30;20035;-85
2021/09/20 02:28:14;;;;;;;8.10;5.15;;;;;;;;;;4761431;30;20039;-82
2021/09/20 02:30:40;;;;;;;7.93;5.40;;;;;;;;;;4779812;29;20050;-84
2021/09/20 02:33:06;;;;;;;6.13;4.80;;;;;;;;;;4759160;30;20047;-85
2021/09/20 02:35:31;;;;;;;7.97;5.28;;;;;;;;;;4799812;29;20139;-83
2021/09/20 02:37:57;;;;;;;6.90;4.93;;;;;;;;;;4779776;30;20063;-82
2021/09/20 02:40:23;;;;;;;7.53;5.20;;;;;;;;;;4789394;29;20073;-85
2021/09/20 02:42:48;;;;;;;7.35;5.18;;;;;;;;;;4788045;29;20031;-82
2021/09/20 02:45:14;;;;;;;7.47;5.00;;;;;;;;;;4794161;29;20042;-84
2021/09/20 02:47:40;;;;;;;8.32;5.50;;;;;;;;;;4773092;30;20042;-83
2021/09/20 02:50:07;;;;;;;7.30;5.00;;;;;;;;;;4790882;29;20059;-85
2021/09/20 02:52:33;;;;;;;6.95;5.13;;;;;;;;;;4790311;29;20042;-82
2021/09/20 02:54:59;;;;;;;6.72;5.00;;;;;;;;;;4788213;29;20035;-83
2021/09/20 02:57:25;;;;;;;6.55;5.00;;;;;;;;;;4788626;30;20118;-83
2021/09/20 02:59:50;;;;;;;8.80;5.43;;;;;;;;;;4775177;29;20046;-84
2021/09/20 03:02:16;;;;;;;6.85;5.20;;;;;;;;;;4792137;29;20078;-82
2021/09/20 03:04:41;;;;;;;7.82;5.40;;;;;;;;;;4785609;29;20042;-85
2021/09/20 03:07:07;;;;;;;7.97;5.18;;;;;;;;;;4761652;30;20042;-82
2021/09/20 03:09:33;;;;;;;7.63;5.75;;;;;;;;;;4771993;29;20046;-85
2021/09/20 03:11:58;;;;;;;9.05;5.82;;;;;;;;;;4785879;29;20051;-83
2021/09/20 03:14:24;;;;;;;9.90;5.95;;;;;;;;;;4788333;29;20038;-84
2021/09/20 03:16:49;;;;;;;9.55;6.32;;;;;;;;;;4789692;29;20043;-83
2021/09/20 03:19:15;;;;;;;8.77;5.88;;;;;;;;;;4774327;30;20067;-84
2021/09/20 03:21:40;;;;;;;9.13;5.70;;;;;;;;;;4790214;29;20395;-85
2021/09/20 03:24:06;;;;;;;10.27;6.13;;;;;;;;;;4762159;29;20573;-83
2021/09/20 03:26:31;;;;;;;9.18;6.22;;;;;;;;;;4773458;30;20549;-83
2021/09/20 03:28:57;;;;;;;9.50;5.95;;;;;;;;;;4787715;30;20047;-84
2021/09/20 03:31:22;;;;;;;9.50;5.95;;;;;;;;;;4792411;29;20039;-84
2021/09/20 03:33:47;;;;;;;9.70;5.78;;;;;;;;;;4762685;30;20111;-84
2021/09/20 03:36:13;;;;;;;8.93;5.90;;;;;;;;;;4797590;29;20182;-84
2021/09/20 03:38:38;;;;;;;10.27;5.78;;;;;;;;;;4789087;29;20513;-82
2021/09/20 03:41:04;;;;;;;11.32;5.30;;;;;;;;;;4788648;29;20043;-85
2021/09/20 03:43:29;;;;;;;10.80;5.75;;;;;;;;;;4787012;30;20039;-82
2021/09/20 03:45:55;;;;;;;8.02;5.63;;;;;;;;;;4789763;29;20043;-82
2021/09/20 03:48:20;;;;;;;8.48;5.80;;;;;;;;;;4787772;29;20118;-83
2021/09/20 03:50:46;;;;;;;8.25;5.57;;;;;;;;;;4766423;30;20059;-83
2021/09/20 03:53:11;;;;;;;7.88;5.50;;;;;;;;;;4784676;29;20046;-82
2021/09/20 03:55:37;;;;;;;9.52;5.72;;;;;;;;;;4787191;30;20035;-82
2021/09/20 03:58:02;;;;;;;9.40;5.88;;;;;;;;;;4788977;29;20035;-85
2021/09/20 04:00:28;;;;;;;7.65;5.45;;;;;;;;;;4772842;30;20099;-82
2021/09/20 04:02:53;;;;;;;9.60;5.53;;;;;;;;;;4786818;29;20516;-83
2021/09/20 04:05:19;;;;;;;7.60;5.68;;;;;;;;;;4757224;30;20130;-85
2021/09/20 04:07:45;;;;;;;10.25;5.75;;;;;;;;;;4791362;29;20114;-82
2021/09/20 04:10:12;;;;;;;7.97;5.95;;;;;;;;;;4776618;29;20031;-82
2021/09/20 04:12:37;;;;;;;8.68;5.82;;;;;;;;;;4788220;29;20101;-84
2021/09/20 04:15:04;;;;;;;8.90;5.60;;;;;;;;;;4775418;30;20043;-83
2021/09/20 04:17:29;;;;;;;9.43;5.82;;;;;;;;;;4794031;29;20035;-82
2021/09/20 04:19:55;;;;;;;10.10;6.32;;;;;;;;;;4771669;29;20059;-82
2021/09/20 04:22:20;;;;;;;10.43;6.30;;;;;;;;;;4749585;30;20391;-85
2021/09/20 04:24:46;;;;;;;8.25;5.70;;;;;;;;;;4784266;29;20062;-83
2021/09/20 04:27:11;;;;;;;9.80;5.95;;;;;;;;;;4773960;30;20044;-83
2021/09/20 04:29:36;;;;;;;10.65;6.50;;;;;;;;;;4771663;30;20053;-82
2021/09/20 04:32:02;;;;;;;8.40;5.82;;;;;;;;;;4742700;30;20039;-85
2021/09/20 04:34:27;;;;;;;8.70;6.15;;;;;;;;;;4787098;29;20436;-85
2021/09/20 04:36:53;;;;;;;8.63;6.00;;;;;;;;;;4772178;29;20046;-85
2021/09/20 04:39:19;;;;;;;10.23;6.50;;;;;;;;;;4762536;30;20031;-85
2021/09/20 04:41:44;;;;;;;8.52;6.10;;;;;;;;;;4796465;29;20110;-83
2021/09/20 04:44:10;;;;;;;9.73;6.70;;;;;;;;;;4771764;30;20035;-82
2021/09/20 04:46:35;;;;;;;8.23;5.97;;;;;;;;;;4770411;29;20130;-84
2021/09/20 04:49:01;;;;;;;9.68;6.35;;;;;;;;;;4799988;29;20039;-84
2021/09/20 04:51:26;;;;;;;8.68;6.20;;;;;;;;;;4770185;30;20063;-83
2021/09/20 04:53:52;;;;;;;8.55;5.88;;;;;;;;;;4789478;29;20518;-82
2021/09/20 04:56:17;;;;;;;8.82;6.07;;;;;;;;;;4757272;30;20072;-85
2021/09/20 04:58:43;;;;;;;8.15;5.95;;;;;;;;;;4790040;29;20042;-85
2021/09/20 05:01:08;;;;;;;10.80;6.00;;;;;;;;;;4778146;29;20038;-82
2021/09/20 05:03:34;;;;;;;8.80;5.65;;;;;;;;;;4776477;30;20131;-84
2021/09/20 05:05:59;;;;;;;9.07;6.10;;;;;;;;;;4759955;30;20046;-84
2021/09/20 05:08:25;;;;;;;8.10;5.88;;;;;;;;;;4760985;30;20050;-83
2021/09/20 05:10:50;;;;;;;9.40;6.25;;;;;;;;;;4788841;29;20126;-84
2021/09/20 05:13:16;;;;;;;10.63;6.40;;;;;;;;;;4764756;29;20039;-83
2021/09/20 05:15:42;;;;;;;8.43;6.05;;;;;;;;;;4790686;29;20047;-85
2021/09/20 05:18:07;;;;;;;10.25;6.65;;;;;;;;;;4768884;29;20389;-83
2021/09/20 05:20:32;;;;;;;9.10;6.63;;;;;;;;;;4789508;29;20047;-83
2021/09/20 05:22:58;;;;;;;9.77;6.07;;;;;;;;;;4793540;29;20090;-84
2021/09/20 05:25:23;;;;;;;8.57;6.22;;;;;;;;;;4776421;30;20035;-85
2021/09/20 05:27:50;;;;;;;10.80;5.97;;;;;;;;;;4752496;29;20035;-82
2021/09/20 05:30:16;;;;;;;9.80;6.63;;;;;;;;;;4787184;30;20035;-83
2021/09/20 05:32:41;;;;;;;8.13;5.75;;;;;;;;;;4793151;29;20079;-82
2021/09/20 05:35:08;;;;;;;8.45;5.68;;;;;;;;;;4791833;29;20092;-84
2021/09/20 05:37:34;;;;;;;9.10;6.15;;;;;;;;;;4790687;30;20043;-84
2021/09/20 05:39:59;;;;;;;9.05;6.30;;;;;;;;;;4760248;30;20027;-85
2021/09/20 05:42:25;;;;;;;8.55;5.57;;;;;;;;;;4777304;29;20031;-83
2021/09/20 05:44:50;;;;;;;9.50;6.78;;;;;;;;;;4799818;29;20039;-85
2021/09/20 05:47:16;;;;;;;10.30;6.05;;;;;;;;;;4787062;29;20042;-84
2021/09/20 05:49:41;;;;;;;10.02;6.13;;;;;;;;;;4794875;29;20091;-84
2021/09/20 05:52:07;;;;;;;9.55;6.20;;;;;;;;;;4794480;29;20184;-83
2021/09/20 05:54:32;;;;;;;8.95;6.28;;;;;;;;;;4780554;30;20134;-82
2021/09/20 05:56:58;;;;;;;9.15;6.20;;;;;;;;;;4790501;29;20038;-84
2021/09/20 05:59:23;;;;;;;8.55;6.20;;;;;;;;;;4790893;29;20399;-81
2021/09/20 06:01:49;;;;;;;8.55;6.10;;;;;;;;;;4776391;30;20028;-84
2021/09/20 06:04:14;;;;;;;9.75;6.50;;;;;;;;;;4773866;30;20046;-82
2021/09/20 06:06:40;;;;;;;9.65;7.20;;;;;;;;;;4790009;29;20114;-82
2021/09/20 06:09:05;;;;;;;9.35;6.40;;;;;;;;;;4774023;29;20027;-83
2021/09/20 06:11:31;;;;;;;10.43;6.35;;;;;;;;;;4780095;30;20053;-84
2021/09/20 06:13:57;;;;;;;9.07;6.47;;;;;;;;;;4774005;30;20051;-84
2021/09/20 06:16:23;;;;;;;11.23;6.38;;;;;;;;;;4768590;29;20518;-83
2021/09/20 06:18:48;;;;;;;10.18;6.72;;;;;;;;;;4743996;30;20031;-82
2021/09/20 06:21:14;;;;;;;10.40;6.95;;;;;;;;;;4791715;29;20039;-82
2021/09/20 06:23:40;;;;;;;10.05;6.05;;;;;;;;;;4772370;30;20031;-82
2021/09/20 06:26:05;;;;;;;10.25;6.90;;;;;;;;;;4789257;29;20059;-82
2021/09/20 06:28:32;;;;;;;9.40;6.05;;;;;;;;;;4758616;30;20414;-84
2021/09/20 06:31:02;;;;;;;9.18;6.75;;;;;;;;;;4777820;30;20107;-82
2021/09/20 06:33:29;;;;;;;9.63;6.78;;;;;;;;;;4777826;30;20126;-82
2021/09/20 06:35:55;;;;;;;9.05;6.45;;;;;;;;;;4799598;29;20038;-83
2021/09/20 06:38:21;;;;;;;11.75;7.03;;;;;;;;;;4775706;29;20476;-84
2021/09/20 06:40:46;;;;;;;10.93;6.72;;;;;;;;;;4778582;29;20050;-84
2021/09/20 06:43:12;;;;;;;10.20;7.15;;;;;;;;;;4766001;30;20027;-82
2021/09/20 06:45:37;;;;;;;12.13;7.22;;;;;;;;;;4797298;29;20062;-84
2021/09/20 06:48:03;;;;;;;15.02;7.15;;;;;;;;;;4753679;29;20491;-82
2021/09/20 06:50:28;;;;;;;12.35;7.00;;;;;;;;;;4780248;30;20062;-82
2021/09/20 06:52:54;;;;;;;12.27;7.13;;;;;;;;;;4778289;30;20036;-84
2021/09/20 06:55:19;;;;;;;18.85;7.85;;;;;;;;;;4776469;30;20027;-84
2021/09/20 06:57:45;;;;;;;14.98;7.80;;;;;;;;;;4790599;29;20072;-84
2021/09/20 07:00:12;;;;;;;11.50;6.95;;;;;;;;;;4795156;29;20039;-84
2021/09/20 07:02:37;;;;;;;10.25;7.40;;;;;;;;;;4793278;29;20088;-82
2021/09/20 07:05:03;;;;;;;11.02;8.02;;;;;;;;;;4795850;29;20035;-84
2021/09/20 07:07:29;;;;;;;10.43;7.35;;;;;;;;;;4790137;30;20114;-84
2021/09/20 07:09:54;;;;;;;10.63;7.05;;;;;;;;;;4766561;30;20079;-82
2021/09/20 07:12:19;;;;;;;16.30;8.90;;;;;;;;;;4768218;30;20070;-82
2021/09/20 07:14:45;;;;;;;11.77;7.32;;;;;;;;;;4775135;30;20449;-82
2021/09/20 07:17:10;;;;;;;10.70;7.22;;;;;;;;;;4772971;30;20039;-84
2021/09/20 07:19:36;;;;;;;15.70;8.13;;;;;;;;;;4773111;29;20055;-83
2021/09/20 07:22:01;;;;;;;14.75;7.70;;;;;;;;;;4787337;29;20039;-82
2021/09/20 07:24:27;;;;;;;26.75;9.00;;;;;;;;;;4794043;29;20035;-84
2021/09/20 07:26:53;;;;;;;27.25;8.23;;;;;;;;;;4789581;29;20122;-81
2021/09/20 07:29:19;;;;;;;31.98;9.23;;;;;;;;;;4775394;30;20070;-81
2021/09/20 07:31:44;;;;;;;17.02;8.00;;;;;;;;;;4793383;29;20107;-83
2021/09/20 07:34:09;;;;;;;11.38;6.68;;;;;;;;;;4780584;29;20035;-84
2021/09/20 07:36:36;;;;;;;11.00;7.47;;;;;;;;;;4774506;30;20096;-83
2021/09/20 07:39:02;;;;;;;12.50;7.15;;;;;;;;;;4746917;29;20062;-84
2021/09/20 07:41:28;;;;;;;10.02;6.93;;;;;;;;;;4779573;29;20795;-84
2021/09/20 07:43:53;;;;;;;10.60;7.28;;;;;;;;;;4771061;30;20039;-83
2021/09/20 07:46:22;;;;;;;11.15;7.18;;;;;;;;;;4792650;29;20484;-82
2021/09/20 07:48:48;;;;;;;8.88;6.72;;;;;;;;;;4793643;29;20045;-83
2021/09/20 07:51:15;;;;;;;10.82;7.28;;;;;;;;;;4789313;29;20138;-83
2021/09/20 07:53:40;;;;;;;9.82;7.20;;;;;;;;;;4777479;30;20037;-82
2021/09/20 07:56:05;;;;;;;9.60;7.20;;;;;;;;;;4759165;30;20039;-82
2021/09/20 07:58:31;;;;;;;10.00;7.15;;;;;;;;;;4774105;30;20043;-82
2021/09/20 08:00:58;;;;;;;8.98;6.63;;;;;;;;;;4776482;30;20100;-83
2021/09/20 08:03:25;;;;;;;12.43;7.18;;;;;;;;;;4778628;29;20563;-81
2021/09/20 08:05:52;;;;;;;9.23;6.78;;;;;;;;;;4790211;30;20103;-81
2021/09/20 08:08:20;;;;;;;12.75;7.47;;;;;;;;;;4791024;29;20061;-82
2021/09/20 08:10:45;;;;;;;10.10;7.45;;;;;;;;;;4791667;29;20039;-83
2021/09/20 08:13:11;;;;;;;10.13;7.45;;;;;;;;;;4785757;29;20101;-82
2021/09/20 08:15:37;;;;;;;9.70;7.50;;;;;;;;;;4786736;30;20104;-82
2021/09/20 08:18:03;;;;;;;11.23;7.55;;;;;;;;;;4760557;30;20043;-84
2021/09/20 08:20:30;;;;;;;10.05;7.15;;;;;;;;;;4784851;29;20055;-82
2021/09/20 08:22:55;;;;;;;9.93;7.65;;;;;;;;;;4788420;29;20039;-84
2021/09/20 08:25:22;;;;;;;9.25;7.20;;;;;;;;;;4783906;29;20039;-81
2021/09/20 08:27:49;;;;;;;9.90;7.43;;;;;;;;;;4791069;29;20122;-84
2021/09/20 08:30:15;;;;;;;10.80;7.65;;;;;;;;;;4788807;29;20035;-82
2021/09/20 08:32:41;;;;;;;10.63;7.55;;;;;;;;;;4789606;29;20130;-84
2021/09/20 08:35:07;;;;;;;10.65;8.18;;;;;;;;;;4779199;29;20115;-82
2021/09/20 08:37:33;;;;;;;12.15;7.88;;;;;;;;;;4799501;29;20043;-82
2021/09/20 08:39:59;;;;;;;10.57;8.38;;;;;;;;;;4779112;29;20034;-84
2021/09/20 08:42:24;;;;;;;10.52;7.97;;;;;;;;;;4767704;30;20091;-82
2021/09/20 08:44:50;;;;;;;9.80;7.93;;;;;;;;;;4782923;30;20430;-82
2021/09/20 08:47:17;;;;;;;10.48;7.97;;;;;;;;;;4794418;29;20075;-83
2021/09/20 08:49:43;;;;;;;11.68;7.75;;;;;;;;;;4795204;29;20045;-82
2021/09/20 08:52:10;;;;;;;10.80;8.00;;;;;;;;;;4795558;29;20055;-82
2021/09/20 08:54:35;;;;;;;9.70;7.63;;;;;;;;;;4791981;29;20849;-82
2021/09/20 08:57:01;;;;;;;9.63;7.00;;;;;;;;;;4767702;30;20040;-82
2021/09/20 08:59:26;;;;;;;11.73;7.97;;;;;;;;;;4790237;29;20035;-83
2021/09/20 09:01:54;;;;;;;9.57;7.68;;;;;;;;;;4777719;30;20126;-84
2021/09/20 09:04:27;;;;;;;9.10;7.55;;;;;;;;;;4794108;29;20060;-83
2021/09/20 09:07:00;;;;;;;9.75;7.43;;;;;;;;;;4784894;29;20438;-82
2021/09/20 09:09:30;;;;;;;10.85;7.38;;;;;;;;;;4779296;30;20043;-84
2021/09/20 09:12:17;;;;;;;9.98;7.75;;;;;;;;;;4794901;29;20034;-82
2021/09/20 09:14:43;;;;;;;10.25;7.85;;;;;;;;;;4783029;29;20035;-82
2021/09/20 09:17:11;;;;;;;10.15;7.03;;;;;;;;;;4791800;29;20042;-82
2021/09/20 09:19:45;;;;;;;10.63;7.50;;;;;;;;;;4765512;30;20035;-82
2021/09/20 09:22:10;;;;;;;13.70;7.65;;;;;;;;;;4780439;29;20028;-84
2021/09/20 09:24:36;;;;;;;9.68;7.68;;;;;;;;;;4789886;29;20063;-85
2021/09/20 09:27:02;;;;;;;11.73;8.50;;;;;;;;;;4787320;29;20035;-83
2021/09/20 09:29:30;;;;;;;11.40;8.23;;;;;;;;;;4791678;30;20037;-85
2021/09/20 09:31:58;;;;;;;11.60;8.00;;;;;;;;;;4797097;29;20606;-82
2021/09/20 09:34:26;;;;;;;10.73;7.88;;;;;;;;;;4764938;30;20035;-84
2021/09/20 09:37:05;;;;;;;9.05;7.53;;;;;;;;;;4778322;30;20089;-81
2021/09/20 09:39:31;;;;;;;11.68;8.18;;;;;;;;;;4791305;29;20035;-82
2021/09/20 09:41:56;;;;;;;9.05;6.93;;;;;;;;;;4785029;29;20036;-82
2021/09/20 09:44:35;;;;;;;9.70;7.43;;;;;;;;;;4794852;29;20032;-82
2021/09/20 09:47:01;;;;;;;10.98;7.63;;;;;;;;;;4791569;29;20130;-84
2021/09/20 09:49:27;;;;;;;9.48;7.53;;;;;;;;;;4771375;29;20575;-83
2021/09/20 09:52:03;;;;;;;9.50;7.28;;;;;;;;;;4790331;29;20144;-84
2021/09/20 09:54:34;;;;;;;15.50;7.72;;;;;;;;;;4792244;29;20038;-82
2021/09/20 09:57:22;;;;;;;12.07;7.05;;;;;;;;;;4797048;29;20510;-84
2021/09/20 10:00:07;;;;;;;10.27;7.20;;;;;;;;;;4787056;29;20050;-82
2021/09/20 10:02:36;;;;;;;7.68;6.18;;;;;;;;;;4781003;29;20019;-84
2021/09/20 10:05:08;;;;;;;9.02;6.97;;;;;;;;;;4797043;29;20031;-84
2021/09/20 10:07:38;;;;;;;11.77;6.80;;;;;;;;;;4792132;29;20084;-84
2021/09/20 10:10:16;;;;;;;9.35;6.88;;;;;;;;;;4794891;29;20027;-82
2021/09/20 10:12:43;;;;;;;8.60;6.57;;;;;;;;;;4779369;30;20503;-84
2021/09/20 10:15:11;;;;;;;9.00;6.47;;;;;;;;;;4764297;29;20046;-82
2021/09/20 10:17:37;;;;;;;8.98;5.97;;;;;;;;;;4772173;29;20028;-84
2021/09/20 10:20:05;;;;;;;9.65;5.97;;;;;;;;;;4799712;29;20407;-84
2021/09/20 10:22:30;;;;;;;6.22;5.22;;;;;;;;;;4793624;29;20034;-84
2021/09/20 10:24:58;;;;;;;10.25;6.13;;;;;;;;;;4757107;30;20039;-82
2021/09/20 10:27:26;;;;;;;9.27;6.30;;;;;;;;;;4788048;29;20381;-81
2021/09/20 10:29:56;;;;;;;8.45;5.80;;;;;;;;;;4793466;29;20035;-82
2021/09/20 10:32:26;;;;;;;7.45;5.95;;;;;;;;;;4773882;30;20031;-84
2021/09/20 10:34:51;;;;;;;7.90;5.50;;;;;;;;;;4790491;29;20043;-84
2021/09/20 10:37:24;;;;;;;8.25;6.03;;;;;;;;;;4793795;29;20039;-85
2021/09/20 10:39:54;;;;;;;7.97;5.38;;;;;;;;;;4794877;29;20033;-82
2021/09/20 10:42:46;;;;;;;7.10;5.53;;;;;;;;;;4791258;30;20034;-82
2021/09/20 10:45:36;;;;;;;6.70;5.00;;;;;;;;;;4801951;29;20377;-82
2021/09/20 10:48:15;;;;;;;8.40;5.95;;;;;;;;;;4794650;29;20066;-81
2021/09/20 10:50:46;;;;;;;7.35;5.53;;;;;;;;;;4774942;30;20051;-84
2021/09/20 10:53:16;;;;;;;8.73;6.07;;;;;;;;;;4791718;29;20042;-82
2021/09/20 10:56:06;;;;;;;8.02;5.68;;;;;;;;;;4793323;29;20034;-84
2021/09/20 10:58:45;;;;;;;9.15;6.00;;;;;;;;;;4787234;30;20035;-84
2021/09/20 11:01:10;;;;;;;9.95;5.90;;;;;;;;;;4795675;29;20067;-82
2021/09/20 11:03:53;;;;;;;9.57;5.95;;;;;;;;;;4791431;30;20034;-82
2021/09/20 11:06:35;;;;;;;6.82;5.50;;;;;;;;;;4790901;29;20036;-82
2021/09/20 11:09:02;;;;;;;8.63;5.67;;;;;;;;;;4775065;30;20043;-85
2021/09/20 11:14:07;;;;;;;8.80;5.43;;;;;;;;;;4795563;29;20043;-82
2021/09/20 11:16:52;;;;;;;10.07;5.20;;;;;;;;;;4780738;29;20035;-82
2021/09/20 11:19:24;;;;;;;7.70;5.60;;;;;;;;;;4786921;29;20042;-81
2021/09/20 11:22:14;;;;;;;7.30;5.15;;;;;;;;;;4785810;29;20024;-82
2021/09/20 11:24:42;;;;;;;7.10;5.38;;;;;;;;;;4791408;29;20031;-82
2021/09/20 11:27:37;;;;;;;8.00;5.90;;;;;;;;;;4789624;30;20070;-82
2021/09/20 11:30:18;;;;;;;11.23;5.72;;;;;;;;;;4793121;29;20527;-84
2021/09/20 11:32:47;;;;;;;13.68;5.95;;;;;;;;;;4790250;29;20130;-82
2021/09/20 11:35:14;;;;;;;10.02;5.68;;;;;;;;;;4788009;29;20038;-83
2021/09/20 11:37:39;;;;;;;13.05;5.70;;;;;;;;;;4782399;29;20093;-82
2021/09/20 11:40:13;;;;;;;10.95;5.80;;;;;;;;;;4793036;29;20438;-82
2021/09/20 11:42:40;;;;;;;14.57;5.75;;;;;;;;;;4794998;29;20034;-82
2021/09/20 11:45:18;;;;;;;9.38;5.28;;;;;;;;;;4783709;30;20039;-85
2021/09/20 11:47:52;;;;;;;18.77;6.07;;;;;;;;;;4784263;29;20031;-85
2021/09/20 11:50:29;;;;;;;14.00;5.70;;;;;;;;;;4790574;29;20063;-85
2021/09/20 11:53:01;;;;;;;9.80;4.75;;;;;;;;;;4787193;29;20106;-83
2021/09/20 11:55:33;;;;;;;9.20;5.80;;;;;;;;;;4797196;29;20101;-84
2021/09/20 11:58:01;;;;;;;6.70;5.35;;;;;;;;;;4774730;29;20039;-84
2021/09/20 12:00:29;;;;;;;31.77;6.47;;;;;;;;;;4774845;29;20027;-83
2021/09/20 12:02:57;;;;;;;37.03;7.18;;;;;;;;;;4792518;29;20437;-82
2021/09/20 12:05:28;;;;;;;17.63;6.63;;;;;;;;;;4759718;30;20047;-83
2021/09/20 12:08:05;;;;;;;26.55;7.63;;;;;;;;;;4800657;29;20035;-83
2021/09/20 12:10:58;;;;;;;9.27;5.30;;;;;;;;;;4778585;30;20028;-83
2021/09/20 12:13:27;;;;;;;8.27;5.45;;;;;;;;;;4773982;29;20142;-83
2021/09/20 12:15:55;;;;;;;10.20;5.30;;;;;;;;;;4787123;29;20412;-84
2021/09/20 12:18:30;;;;;;;10.30;5.10;;;;;;;;;;4792855;29;20046;-84
2021/09/20 12:21:01;;;;;;;7.95;5.50;;;;;;;;;;4790218;29;20043;-83
2021/09/20 12:23:36;;;;;;;7.97;4.80;;;;;;;;;;4784727;29;20448;-85
2021/09/20 12:26:21;;;;;;;7.85;4.97;;;;;;;;;;4791396;29;20031;-82
2021/09/20 12:28:52;;;;;;;6.05;4.72;;;;;;;;;;4784254;29;20089;-85
2021/09/20 12:31:24;;;;;;;7.57;5.25;;;;;;;;;;4790299;29;20031;-83
2021/09/20 12:33:59;;;;;;;7.13;5.07;;;;;;;;;;4786316;29;20040;-83
2021/09/20 12:36:26;;;;;;;8.23;4.85;;;;;;;;;;4789653;29;20042;-83
2021/09/20 12:39:12;;;;;;;6.45;4.95;;;;;;;;;;4791144;29;20046;-84
2021/09/20 12:41:44;;;;;;;6.18;4.60;;;;;;;;;;4785232;29;20039;-84
2021/09/20 12:44:13;;;;;;;5.97;4.75;;;;;;;;;;4784501;29;20043;-83
2021/09/20 12:46:40;;;;;;;7.45;4.45;;;;;;;;;;4790900;29;20035;-83
2021/09/20 12:49:07;;;;;;;7.50;4.63;;;;;;;;;;4777613;29;20031;-83
2021/09/20 12:51:42;;;;;;;5.32;4.18;;;;;;;;;;4787786;29;20105;-84
2021/09/20 12:54:47;;;;;;;7.13;4.80;;;;;;;;;;4784909;29;20047;-82
2021/09/20 12:57:18;;;;;;;7.70;5.38;;;;;;;;;;4777023;29;20043;-85
2021/09/20 12:59:43;;;;;;;6.15;4.70;;;;;;;;;;4792755;29;20067;-82
2021/09/20 13:02:14;;;;;;;7.75;5.07;;;;;;;;;;4784816;30;20677;-83
2021/09/20 13:04:43;;;;;;;6.50;5.20;;;;;;;;;;4787241;29;20035;-84
2021/09/20 13:07:12;;;;;;;10.15;5.20;;;;;;;;;;4786874;29;20100;-83
2021/09/20 13:09:40;;;;;;;7.68;5.00;;;;;;;;;;4786854;30;20517;-83
2021/09/20 13:12:09;;;;;;;7.93;5.35;;;;;;;;;;4787810;29;20089;-84
2021/09/20 13:14:46;;;;;;;7.10;4.78;;;;;;;;;;4788738;29;20035;-83
2021/09/20 13:17:12;;;;;;;9.43;4.82;;;;;;;;;;4787471;29;20496;-84
2021/09/20 13:19:37;;;;;;;6.80;4.55;;;;;;;;;;4776029;30;20127;-84
2021/09/20 13:22:08;;;;;;;7.72;5.45;;;;;;;;;;4790230;29;20081;-83
2021/09/20 13:24:37;;;;;;;6.60;5.20;;;;;;;;;;4773347;30;20023;-84
2021/09/20 13:27:03;;;;;;;8.65;5.30;;;;;;;;;;4786519;29;20039;-85
2021/09/20 13:29:29;;;;;;;7.75;5.32;;;;;;;;;;4795765;29;20107;-83
2021/09/20 13:31:55;;;;;;;7.10;5.30;;;;;;;;;;4772556;29;20097;-83
2021/09/20 13:34:20;;;;;;;9.20;5.20;;;;;;;;;;4787995;29;20037;-82
2021/09/20 13:36:46;;;;;;;8.43;5.22;;;;;;;;;;4783353;29;20130;-82
2021/09/20 13:39:12;;;;;;;7.05;5.85;;;;;;;;;;4786034;29;20127;-84
2021/09/20 13:41:39;;;;;;;6.68;5.10;;;;;;;;;;4792607;29;20049;-82
2021/09/20 13:44:05;;;;;;;7.55;5.03;;;;;;;;;;4788817;29;20062;-84
2021/09/20 13:46:31;;;;;;;7.22;5.35;;;;;;;;;;4774494;30;20067;-84
2021/09/20 13:48:56;;;;;;;7.35;5.10;;;;;;;;;;4770285;29;20043;-82
2021/09/20 13:51:23;;;;;;;7.03;5.07;;;;;;;;;;4784190;29;20048;-82
2021/09/20 13:53:50;;;;;;;8.23;5.40;;;;;;;;;;4788608;29;20449;-84
2021/09/20 13:56:17;;;;;;;6.95;5.03;;;;;;;;;;4787426;29;20117;-82
2021/09/20 13:58:43;;;;;;;9.20;5.10;;;;;;;;;;4782076;29;20461;-84
2021/09/20 14:01:08;;;;;;;6.57;5.32;;;;;;;;;;4788808;29;20035;-83
2021/09/20 14:03:34;;;;;;;7.70;5.15;;;;;;;;;;4763986;30;20100;-84
2021/09/20 14:06:00;;;;;;;7.05;5.20;;;;;;;;;;4760177;30;20039;-84
2021/09/20 14:08:26;;;;;;;7.43;5.03;;;;;;;;;;4782258;29;20035;-83
2021/09/20 14:10:53;;;;;;;7.20;5.00;;;;;;;;;;4784463;29;20046;-83
2021/09/20 14:13:19;;;;;;;6.38;4.60;;;;;;;;;;4759028;30;20587;-81
2021/09/20 14:15:46;;;;;;;8.32;4.32;;;;;;;;;;4778739;30;20028;-83
2021/09/20 14:18:13;;;;;;;6.80;4.30;;;;;;;;;;4777660;29;20478;-83
2021/09/20 14:20:39;;;;;;;6.05;4.07;;;;;;;;;;4766959;29;20126;-84
2021/09/20 14:23:06;;;;;;;6.43;4.25;;;;;;;;;;4782166;29;20070;-81
2021/09/20 14:25:34;;;;;;;6.68;4.10;;;;;;;;;;4780351;29;20035;-82
2021/09/20 14:28:01;;;;;;;6.38;4.03;;;;;;;;;;4768774;30;20039;-84
2021/09/20 14:30:27;;;;;;;7.60;4.57;;;;;;;;;;4782323;29;20060;-82
2021/09/20 14:32:53;;;;;;;7.68;4.38;;;;;;;;;;4769107;30;20426;-81
2021/09/20 14:35:19;;;;;;;6.35;4.40;;;;;;;;;;4765232;29;20058;-81
2021/09/20 14:37:45;;;;;;;6.78;5.20;;;;;;;;;;4783859;29;20078;-83
2021/09/20 14:40:16;;;;;;;6.85;5.00;;;;;;;;;;4776049;29;20046;-82
2021/09/20 14:42:42;;;;;;;7.07;4.35;;;;;;;;;;4779152;29;20035;-82
2021/09/20 14:45:09;;;;;;;8.52;5.10;;;;;;;;;;4775688;29;20041;-84